sensor_id;sensor_type;location;lat;lon;timestamp;temperature;humidity
6879;DHT22;3478;51.462;7.338;2022-07-29T00:00:34;19.60;87.50
6879;DHT22;3478;51.462;7.338;2022-07-29T00:05:38;19.50;87.40
6879;DHT22;3478;51.462;7.338;2022-07-29T00:10:40;19.50;88.60
6879;DHT22;3478;51.462;7.338;2022-07-29T00:15:41;19.40;88.60
6879;DHT22;3478;51.462;7.338;2022-07-29T00:20:45;19.40;89.60
6879;DHT22;3478;51.462;7.338;2022-07-29T00:25:47;19.30;89.00
6879;DHT22;3478;51.462;7.338;2022-07-29T00:30:49;19.30;89.20
6879;DHT22;3478;51.462;7.338;2022-07-29T00:35:52;19.30;89.90
6879;DHT22;3478;51.462;7.338;2022-07-29T00:40:54;19.30;89.30
6879;DHT22;3478;51.462;7.338;2022-07-29T00:45:56;19.30;90.20
6879;DHT22;3478;51.462;7.338;2022-07-29T00:51:01;19.20;90.50
6879;DHT22;3478;51.462;7.338;2022-07-29T00:56:04;19.20;90.90
6879;DHT22;3478;51.462;7.338;2022-07-29T01:01:06;19.10;90.60
6879;DHT22;3478;51.462;7.338;2022-07-29T01:06:09;19.00;91.20
6879;DHT22;3478;51.462;7.338;2022-07-29T01:11:11;19.00;91.70
6879;DHT22;3478;51.462;7.338;2022-07-29T01:16:20;18.90;91.60
6879;DHT22;3478;51.462;7.338;2022-07-29T01:21:44;18.90;92.10
6879;DHT22;3478;51.462;7.338;2022-07-29T01:26:54;18.80;92.50
6879;DHT22;3478;51.462;7.338;2022-07-29T01:32:04;18.80;92.70
6879;DHT22;3478;51.462;7.338;2022-07-29T01:37:12;18.80;93.30
6879;DHT22;3478;51.462;7.338;2022-07-29T01:42:23;18.70;93.70
6879;DHT22;3478;51.462;7.338;2022-07-29T01:47:33;18.70;94.40
6879;DHT22;3478;51.462;7.338;2022-07-29T01:52:39;18.60;94.60
6879;DHT22;3478;51.462;7.338;2022-07-29T01:57:45;18.50;95.10
6879;DHT22;3478;51.462;7.338;2022-07-29T02:02:50;18.50;95.40
6879;DHT22;3478;51.462;7.338;2022-07-29T02:07:55;18.50;96.10
6879;DHT22;3478;51.462;7.338;2022-07-29T02:12:58;18.40;96.50
6879;DHT22;3478;51.462;7.338;2022-07-29T02:18:08;18.40;97.00
6879;DHT22;3478;51.462;7.338;2022-07-29T02:23:11;18.30;97.90
6879;DHT22;3478;51.462;7.338;2022-07-29T02:28:15;18.30;98.50
6879;DHT22;3478;51.462;7.338;2022-07-29T02:33:20;18.20;98.90
6879;DHT22;3478;51.462;7.338;2022-07-29T02:38:25;18.10;99.40
6879;DHT22;3478;51.462;7.338;2022-07-29T02:43:48;18.10;99.90
6879;DHT22;3478;51.462;7.338;2022-07-29T02:48:58;18.00;99.90
6879;DHT22;3478;51.462;7.338;2022-07-29T02:54:04;18.00;99.90
6879;DHT22;3478;51.462;7.338;2022-07-29T02:59:10;18.00;99.90
6879;DHT22;3478;51.462;7.338;2022-07-29T03:04:15;18.00;99.90
6879;DHT22;3478;51.462;7.338;2022-07-29T03:09:17;18.00;99.90
6879;DHT22;3478;51.462;7.338;2022-07-29T03:14:20;18.00;99.90
6879;DHT22;3478;51.462;7.338;2022-07-29T03:19:25;18.00;99.90
6879;DHT22;3478;51.462;7.338;2022-07-29T03:24:29;18.00;99.90
6879;DHT22;3478;51.462;7.338;2022-07-29T03:29:31;18.10;99.90
6879;DHT22;3478;51.462;7.338;2022-07-29T03:34:36;18.00;99.90
6879;DHT22;3478;51.462;7.338;2022-07-29T03:39:40;18.00;99.90
6879;DHT22;3478;51.462;7.338;2022-07-29T03:44:45;18.00;99.90
6879;DHT22;3478;51.462;7.338;2022-07-29T03:49:50;18.00;99.90
6879;DHT22;3478;51.462;7.338;2022-07-29T03:54:53;18.00;99.90
6879;DHT22;3478;51.462;7.338;2022-07-29T03:59:55;18.00;99.90
6879;DHT22;3478;51.462;7.338;2022-07-29T04:04:58;17.90;99.90
6879;DHT22;3478;51.462;7.338;2022-07-29T04:10:00;17.80;99.90
6879;DHT22;3478;51.462;7.338;2022-07-29T04:15:02;17.70;99.90
6879;DHT22;3478;51.462;7.338;2022-07-29T04:20:06;17.70;99.90
6879;DHT22;3478;51.462;7.338;2022-07-29T04:25:08;17.70;99.90
6879;DHT22;3478;51.462;7.338;2022-07-29T04:30:10;17.70;99.90
6879;DHT22;3478;51.462;7.338;2022-07-29T04:35:14;17.70;99.90
6879;DHT22;3478;51.462;7.338;2022-07-29T04:40:16;17.60;99.90
6879;DHT22;3478;51.462;7.338;2022-07-29T04:45:17;17.30;99.90
6879;DHT22;3478;51.462;7.338;2022-07-29T04:50:21;17.10;99.90
6879;DHT22;3478;51.462;7.338;2022-07-29T04:55:23;16.90;99.90
6879;DHT22;3478;51.462;7.338;2022-07-29T05:00:25;16.90;99.90
6879;DHT22;3478;51.462;7.338;2022-07-29T05:05:28;16.80;99.90
6879;DHT22;3478;51.462;7.338;2022-07-29T05:10:30;16.80;99.90
6879;DHT22;3478;51.462;7.338;2022-07-29T05:15:33;16.70;99.90
6879;DHT22;3478;51.462;7.338;2022-07-29T05:20:36;16.60;99.90
6879;DHT22;3478;51.462;7.338;2022-07-29T05:25:38;16.60;99.90
6879;DHT22;3478;51.462;7.338;2022-07-29T05:30:40;16.60;99.90
6879;DHT22;3478;51.462;7.338;2022-07-29T05:35:44;16.60;99.90
6879;DHT22;3478;51.462;7.338;2022-07-29T05:40:45;16.70;99.90
6879;DHT22;3478;51.462;7.338;2022-07-29T05:45:47;16.80;99.90
6879;DHT22;3478;51.462;7.338;2022-07-29T05:50:50;16.70;99.90
6879;DHT22;3478;51.462;7.338;2022-07-29T05:55:52;16.80;99.90
6879;DHT22;3478;51.462;7.338;2022-07-29T06:00:55;16.90;99.90
6879;DHT22;3478;51.462;7.338;2022-07-29T06:06:00;17.20;99.90
6879;DHT22;3478;51.462;7.338;2022-07-29T06:11:03;17.30;99.90
6879;DHT22;3478;51.462;7.338;2022-07-29T06:16:05;17.40;99.90
6879;DHT22;3478;51.462;7.338;2022-07-29T06:21:09;17.60;99.90
6879;DHT22;3478;51.462;7.338;2022-07-29T06:26:11;17.80;99.90
6879;DHT22;3478;51.462;7.338;2022-07-29T06:31:13;18.00;99.90
6879;DHT22;3478;51.462;7.338;2022-07-29T06:36:16;18.10;99.90
6879;DHT22;3478;51.462;7.338;2022-07-29T06:41:18;18.30;99.90
6879;DHT22;3478;51.462;7.338;2022-07-29T06:46:20;18.50;99.90
6879;DHT22;3478;51.462;7.338;2022-07-29T06:51:24;18.50;99.90
6879;DHT22;3478;51.462;7.338;2022-07-29T06:56:27;18.60;99.90
6879;DHT22;3478;51.462;7.338;2022-07-29T07:01:29;18.60;99.90
6879;DHT22;3478;51.462;7.338;2022-07-29T07:06:33;18.60;99.90
6879;DHT22;3478;51.462;7.338;2022-07-29T07:11:35;18.70;99.90
6879;DHT22;3478;51.462;7.338;2022-07-29T07:16:36;18.80;99.90
6879;DHT22;3478;51.462;7.338;2022-07-29T07:21:40;18.80;99.90
6879;DHT22;3478;51.462;7.338;2022-07-29T07:26:41;19.10;99.90
6879;DHT22;3478;51.462;7.338;2022-07-29T07:31:43;19.30;99.90
6879;DHT22;3478;51.462;7.338;2022-07-29T07:36:47;19.50;99.90
6879;DHT22;3478;51.462;7.338;2022-07-29T07:41:49;19.80;99.90
6879;DHT22;3478;51.462;7.338;2022-07-29T07:46:51;20.00;99.90
6879;DHT22;3478;51.462;7.338;2022-07-29T07:51:54;19.90;99.90
6879;DHT22;3478;51.462;7.338;2022-07-29T07:56:56;19.90;99.90
6879;DHT22;3478;51.462;7.338;2022-07-29T08:01:58;20.10;99.90
6879;DHT22;3478;51.462;7.338;2022-07-29T08:07:02;20.10;99.90
6879;DHT22;3478;51.462;7.338;2022-07-29T08:12:05;20.10;99.90
6879;DHT22;3478;51.462;7.338;2022-07-29T08:17:07;20.30;99.90
6879;DHT22;3478;51.462;7.338;2022-07-29T08:22:10;20.30;99.90
6879;DHT22;3478;51.462;7.338;2022-07-29T08:27:12;20.30;99.90
6879;DHT22;3478;51.462;7.338;2022-07-29T08:32:14;20.20;99.90
6879;DHT22;3478;51.462;7.338;2022-07-29T08:37:18;20.30;99.90
6879;DHT22;3478;51.462;7.338;2022-07-29T08:42:20;20.50;99.90
6879;DHT22;3478;51.462;7.338;2022-07-29T08:47:22;20.70;99.90
6879;DHT22;3478;51.462;7.338;2022-07-29T08:52:30;20.80;99.90
6879;DHT22;3478;51.462;7.338;2022-07-29T08:57:35;20.90;99.90
6879;DHT22;3478;51.462;7.338;2022-07-29T09:02:39;20.70;99.90
6879;DHT22;3478;51.462;7.338;2022-07-29T09:07:43;20.50;99.90
6879;DHT22;3478;51.462;7.338;2022-07-29T09:12:48;20.40;99.90
6879;DHT22;3478;51.462;7.338;2022-07-29T09:17:50;20.30;99.90
6879;DHT22;3478;51.462;7.338;2022-07-29T09:22:53;20.20;99.90
6879;DHT22;3478;51.462;7.338;2022-07-29T09:28:04;20.20;99.90
6879;DHT22;3478;51.462;7.338;2022-07-29T09:33:06;20.20;99.90
6879;DHT22;3478;51.462;7.338;2022-07-29T09:38:13;20.30;99.90
6879;DHT22;3478;51.462;7.338;2022-07-29T09:43:15;20.60;99.90
6879;DHT22;3478;51.462;7.338;2022-07-29T09:48:19;20.70;99.90
6879;DHT22;3478;51.462;7.338;2022-07-29T09:53:32;20.50;99.90
6879;DHT22;3478;51.462;7.338;2022-07-29T09:58:34;20.50;99.90
6879;DHT22;3478;51.462;7.338;2022-07-29T10:03:50;20.40;99.90
6879;DHT22;3478;51.462;7.338;2022-07-29T10:08:54;20.30;99.90
6879;DHT22;3478;51.462;7.338;2022-07-29T10:13:56;20.30;99.90
6879;DHT22;3478;51.462;7.338;2022-07-29T10:18:59;20.30;99.90
6879;DHT22;3478;51.462;7.338;2022-07-29T10:24:04;20.20;99.90
6879;DHT22;3478;51.462;7.338;2022-07-29T10:29:06;20.10;99.90
6879;DHT22;3478;51.462;7.338;2022-07-29T10:34:16;20.20;99.90
6879;DHT22;3478;51.462;7.338;2022-07-29T10:39:33;20.10;99.90
6879;DHT22;3478;51.462;7.338;2022-07-29T10:44:40;20.00;99.90
6879;DHT22;3478;51.462;7.338;2022-07-29T10:49:55;20.10;99.90
6879;DHT22;3478;51.462;7.338;2022-07-29T10:54:59;20.10;99.90
6879;DHT22;3478;51.462;7.338;2022-07-29T11:00:25;20.20;99.90
6879;DHT22;3478;51.462;7.338;2022-07-29T11:05:27;20.20;99.90
6879;DHT22;3478;51.462;7.338;2022-07-29T11:10:33;20.20;99.90
6879;DHT22;3478;51.462;7.338;2022-07-29T11:15:53;20.30;99.90
6879;DHT22;3478;51.462;7.338;2022-07-29T11:20:55;20.40;99.90
6879;DHT22;3478;51.462;7.338;2022-07-29T11:26:20;20.40;99.90
6879;DHT22;3478;51.462;7.338;2022-07-29T11:31:35;20.50;99.90
6879;DHT22;3478;51.462;7.338;2022-07-29T11:37:13;20.40;99.90
6879;DHT22;3478;51.462;7.338;2022-07-29T11:42:44;20.40;99.90
6879;DHT22;3478;51.462;7.338;2022-07-29T11:47:52;20.40;99.90
6879;DHT22;3478;51.462;7.338;2022-07-29T11:52:54;20.40;99.90
6879;DHT22;3478;51.462;7.338;2022-07-29T11:57:59;20.50;99.90
6879;DHT22;3478;51.462;7.338;2022-07-29T12:03:03;20.60;99.90
6879;DHT22;3478;51.462;7.338;2022-07-29T12:08:11;20.80;99.90
6879;DHT22;3478;51.462;7.338;2022-07-29T12:13:16;21.00;99.90
6879;DHT22;3478;51.462;7.338;2022-07-29T12:18:19;21.40;99.90
6879;DHT22;3478;51.462;7.338;2022-07-29T12:23:21;22.20;99.90
6879;DHT22;3478;51.462;7.338;2022-07-29T12:28:25;23.40;99.90
6879;DHT22;3478;51.462;7.338;2022-07-29T12:33:28;23.60;99.90
6879;DHT22;3478;51.462;7.338;2022-07-29T12:38:30;23.60;99.90
6879;DHT22;3478;51.462;7.338;2022-07-29T12:43:34;23.60;99.90
6879;DHT22;3478;51.462;7.338;2022-07-29T12:48:36;23.30;99.90
6879;DHT22;3478;51.462;7.338;2022-07-29T12:53:39;23.50;99.90
6879;DHT22;3478;51.462;7.338;2022-07-29T12:58:42;23.60;99.90
6879;DHT22;3478;51.462;7.338;2022-07-29T13:03:46;24.00;99.90
6879;DHT22;3478;51.462;7.338;2022-07-29T13:08:59;24.40;99.90
6879;DHT22;3478;51.462;7.338;2022-07-29T13:14:02;25.00;99.90
6879;DHT22;3478;51.462;7.338;2022-07-29T13:19:06;25.40;99.90
6879;DHT22;3478;51.462;7.338;2022-07-29T13:24:09;25.90;99.90
6879;DHT22;3478;51.462;7.338;2022-07-29T13:29:12;26.10;99.90
6879;DHT22;3478;51.462;7.338;2022-07-29T13:34:14;26.20;99.90
6879;DHT22;3478;51.462;7.338;2022-07-29T13:39:16;26.30;99.90
6879;DHT22;3478;51.462;7.338;2022-07-29T13:44:19;27.10;99.90
6879;DHT22;3478;51.462;7.338;2022-07-29T13:49:21;28.10;98.30
6879;DHT22;3478;51.462;7.338;2022-07-29T13:54:23;29.40;95.10
6879;DHT22;3478;51.462;7.338;2022-07-29T13:59:26;29.80;94.80
6879;DHT22;3478;51.462;7.338;2022-07-29T14:04:28;29.20;90.60
6879;DHT22;3478;51.462;7.338;2022-07-29T14:09:30;28.30;92.50
6879;DHT22;3478;51.462;7.338;2022-07-29T14:14:33;28.90;93.00
6879;DHT22;3478;51.462;7.338;2022-07-29T14:19:36;29.70;91.80
6879;DHT22;3478;51.462;7.338;2022-07-29T14:24:39;30.00;87.40
6879;DHT22;3478;51.462;7.338;2022-07-29T14:29:42;29.90;86.50
6879;DHT22;3478;51.462;7.338;2022-07-29T14:34:44;30.00;87.30
6879;DHT22;3478;51.462;7.338;2022-07-29T14:39:46;29.90;86.70
6879;DHT22;3478;51.462;7.338;2022-07-29T14:44:49;30.00;87.40
6879;DHT22;3478;51.462;7.338;2022-07-29T14:49:51;30.70;81.00
6879;DHT22;3478;51.462;7.338;2022-07-29T14:54:53;31.60;82.20
6879;DHT22;3478;51.462;7.338;2022-07-29T14:59:56;32.50;79.90
6879;DHT22;3478;51.462;7.338;2022-07-29T15:04:58;32.70;74.40
6879;DHT22;3478;51.462;7.338;2022-07-29T15:10:01;32.80;72.90
6879;DHT22;3478;51.462;7.338;2022-07-29T15:15:06;32.30;69.90
6879;DHT22;3478;51.462;7.338;2022-07-29T15:20:09;32.30;70.80
6879;DHT22;3478;51.462;7.338;2022-07-29T15:25:12;32.00;70.00
6879;DHT22;3478;51.462;7.338;2022-07-29T15:30:15;31.90;70.60
6879;DHT22;3478;51.462;7.338;2022-07-29T15:35:18;32.20;68.10
6879;DHT22;3478;51.462;7.338;2022-07-29T15:40:20;31.70;69.40
6879;DHT22;3478;51.462;7.338;2022-07-29T15:45:23;31.00;69.20
6879;DHT22;3478;51.462;7.338;2022-07-29T15:50:25;30.40;70.60
6879;DHT22;3478;51.462;7.338;2022-07-29T15:55:27;29.90;73.70
6879;DHT22;3478;51.462;7.338;2022-07-29T16:00:30;29.10;73.90
6879;DHT22;3478;51.462;7.338;2022-07-29T16:05:33;28.60;75.60
6879;DHT22;3478;51.462;7.338;2022-07-29T16:10:35;28.00;83.30
6879;DHT22;3478;51.462;7.338;2022-07-29T16:15:38;27.70;82.90
6879;DHT22;3478;51.462;7.338;2022-07-29T16:20:40;27.10;83.50
6879;DHT22;3478;51.462;7.338;2022-07-29T16:25:42;27.00;85.40
6879;DHT22;3478;51.462;7.338;2022-07-29T16:30:45;27.60;81.20
6879;DHT22;3478;51.462;7.338;2022-07-29T16:35:47;28.80;77.80
6879;DHT22;3478;51.462;7.338;2022-07-29T16:40:49;29.60;76.70
6879;DHT22;3478;51.462;7.338;2022-07-29T16:45:52;30.50;72.90
6879;DHT22;3478;51.462;7.338;2022-07-29T16:50:54;30.80;72.10
6879;DHT22;3478;51.462;7.338;2022-07-29T16:55:56;31.30;71.20
6879;DHT22;3478;51.462;7.338;2022-07-29T17:00:59;31.10;69.90
6879;DHT22;3478;51.462;7.338;2022-07-29T17:06:01;30.80;71.90
6879;DHT22;3478;51.462;7.338;2022-07-29T17:11:03;30.90;69.60
6879;DHT22;3478;51.462;7.338;2022-07-29T17:16:06;30.30;68.90
6879;DHT22;3478;51.462;7.338;2022-07-29T17:21:08;30.30;71.70
6879;DHT22;3478;51.462;7.338;2022-07-29T17:26:10;30.30;70.20
6879;DHT22;3478;51.462;7.338;2022-07-29T17:31:14;29.70;71.20
6879;DHT22;3478;51.462;7.338;2022-07-29T17:36:16;28.20;76.20
6879;DHT22;3478;51.462;7.338;2022-07-29T17:41:27;27.30;78.90
6879;DHT22;3478;51.462;7.338;2022-07-29T17:46:30;27.10;79.60
6879;DHT22;3478;51.462;7.338;2022-07-29T17:51:32;26.70;82.40
6879;DHT22;3478;51.462;7.338;2022-07-29T17:56:34;26.50;83.50
6879;DHT22;3478;51.462;7.338;2022-07-29T18:01:37;26.10;83.80
6879;DHT22;3478;51.462;7.338;2022-07-29T18:06:40;25.60;85.80
6879;DHT22;3478;51.462;7.338;2022-07-29T18:11:42;25.40;88.20
6879;DHT22;3478;51.462;7.338;2022-07-29T18:16:47;25.20;89.30
6879;DHT22;3478;51.462;7.338;2022-07-29T18:21:48;25.00;91.10
6879;DHT22;3478;51.462;7.338;2022-07-29T18:26:50;24.80;90.70
6879;DHT22;3478;51.462;7.338;2022-07-29T18:31:54;24.50;91.50
6879;DHT22;3478;51.462;7.338;2022-07-29T18:36:55;24.30;91.70
6879;DHT22;3478;51.462;7.338;2022-07-29T18:41:57;24.10;92.60
6879;DHT22;3478;51.462;7.338;2022-07-29T18:47:00;23.90;93.20
6879;DHT22;3478;51.462;7.338;2022-07-29T18:52:03;23.70;93.10
6879;DHT22;3478;51.462;7.338;2022-07-29T18:57:05;23.50;94.30
6879;DHT22;3478;51.462;7.338;2022-07-29T19:02:08;23.30;94.80
6879;DHT22;3478;51.462;7.338;2022-07-29T19:07:10;23.10;95.60
6879;DHT22;3478;51.462;7.338;2022-07-29T19:12:12;22.90;97.00
6879;DHT22;3478;51.462;7.338;2022-07-29T19:17:15;22.60;98.00
6879;DHT22;3478;51.462;7.338;2022-07-29T19:22:17;22.50;98.30
6879;DHT22;3478;51.462;7.338;2022-07-29T19:27:19;22.30;99.50
6879;DHT22;3478;51.462;7.338;2022-07-29T19:32:22;22.20;99.90
6879;DHT22;3478;51.462;7.338;2022-07-29T19:37:24;22.00;99.90
6879;DHT22;3478;51.462;7.338;2022-07-29T19:42:26;21.90;99.90
6879;DHT22;3478;51.462;7.338;2022-07-29T19:47:30;21.80;99.90
6879;DHT22;3478;51.462;7.338;2022-07-29T19:52:32;21.60;99.90
6879;DHT22;3478;51.462;7.338;2022-07-29T19:57:34;21.60;99.90
6879;DHT22;3478;51.462;7.338;2022-07-29T20:02:38;21.50;99.90
6879;DHT22;3478;51.462;7.338;2022-07-29T20:07:41;21.40;99.90
6879;DHT22;3478;51.462;7.338;2022-07-29T20:12:43;21.40;99.90
6879;DHT22;3478;51.462;7.338;2022-07-29T20:17:46;21.30;99.90
6879;DHT22;3478;51.462;7.338;2022-07-29T20:22:48;21.20;99.90
6879;DHT22;3478;51.462;7.338;2022-07-29T20:27:50;21.10;99.90
6879;DHT22;3478;51.462;7.338;2022-07-29T20:32:55;21.00;99.90
6879;DHT22;3478;51.462;7.338;2022-07-29T20:37:57;21.00;99.90
6879;DHT22;3478;51.462;7.338;2022-07-29T20:42:59;21.00;99.90
6879;DHT22;3478;51.462;7.338;2022-07-29T20:48:03;20.90;99.90
6879;DHT22;3478;51.462;7.338;2022-07-29T20:53:06;20.80;99.90
6879;DHT22;3478;51.462;7.338;2022-07-29T20:58:08;20.70;99.90
6879;DHT22;3478;51.462;7.338;2022-07-29T21:03:12;20.60;99.90
6879;DHT22;3478;51.462;7.338;2022-07-29T21:08:14;20.60;99.90
6879;DHT22;3478;51.462;7.338;2022-07-29T21:13:16;20.60;99.90
6879;DHT22;3478;51.462;7.338;2022-07-29T21:18:20;20.60;99.90
6879;DHT22;3478;51.462;7.338;2022-07-29T21:23:30;20.50;99.90
6879;DHT22;3478;51.462;7.338;2022-07-29T21:28:32;20.50;99.90
6879;DHT22;3478;51.462;7.338;2022-07-29T21:33:40;20.40;99.90
6879;DHT22;3478;51.462;7.338;2022-07-29T21:38:43;20.30;99.90
6879;DHT22;3478;51.462;7.338;2022-07-29T21:43:45;20.30;99.90
6879;DHT22;3478;51.462;7.338;2022-07-29T21:48:48;20.10;99.90
6879;DHT22;3478;51.462;7.338;2022-07-29T21:53:50;20.10;99.90
6879;DHT22;3478;51.462;7.338;2022-07-29T21:58:52;20.10;99.90
6879;DHT22;3478;51.462;7.338;2022-07-29T22:03:55;20.10;99.90
6879;DHT22;3478;51.462;7.338;2022-07-29T22:08:57;20.10;99.90
6879;DHT22;3478;51.462;7.338;2022-07-29T22:13:59;20.10;99.90
6879;DHT22;3478;51.462;7.338;2022-07-29T22:19:02;20.10;99.90
6879;DHT22;3478;51.462;7.338;2022-07-29T22:24:05;20.10;99.90
6879;DHT22;3478;51.462;7.338;2022-07-29T22:29:07;20.10;99.90
6879;DHT22;3478;51.462;7.338;2022-07-29T22:34:12;20.10;99.90
6879;DHT22;3478;51.462;7.338;2022-07-29T22:39:14;20.10;99.90
6879;DHT22;3478;51.462;7.338;2022-07-29T22:44:16;20.10;99.90
6879;DHT22;3478;51.462;7.338;2022-07-29T22:49:19;20.10;99.90
6879;DHT22;3478;51.462;7.338;2022-07-29T22:54:21;20.00;99.90
6879;DHT22;3478;51.462;7.338;2022-07-29T22:59:23;20.00;99.90
6879;DHT22;3478;51.462;7.338;2022-07-29T23:04:27;19.90;99.90
6879;DHT22;3478;51.462;7.338;2022-07-29T23:09:29;19.90;99.90
6879;DHT22;3478;51.462;7.338;2022-07-29T23:14:31;19.80;99.90
6879;DHT22;3478;51.462;7.338;2022-07-29T23:19:34;19.80;99.90
6879;DHT22;3478;51.462;7.338;2022-07-29T23:24:36;19.70;99.90
6879;DHT22;3478;51.462;7.338;2022-07-29T23:29:38;19.70;99.90
6879;DHT22;3478;51.462;7.338;2022-07-29T23:34:41;19.70;99.90
6879;DHT22;3478;51.462;7.338;2022-07-29T23:39:43;19.70;99.90
6879;DHT22;3478;51.462;7.338;2022-07-29T23:44:45;19.60;99.90
6879;DHT22;3478;51.462;7.338;2022-07-29T23:49:48;19.60;99.90
6879;DHT22;3478;51.462;7.338;2022-07-29T23:54:50;19.50;99.90
6879;DHT22;3478;51.462;7.338;2022-07-29T23:59:52;19.40;99.90
